Terminal Aerodrome Forecast
Issued by NWS Twin Cities, MN

Home | Current Version | Previous Version | Graphics & Text | Print | Product List | Glossary On
Versions: 1 2 3 4 5 6 7 8 9 10 11 12 13 14 15 16 17 18 19 20 21 22 23 24 25 26 27 28 29
000
FTUS43 KMPX 200254 AAB
TAFMSP
TAF AMD
KMSP 200254Z 2003/2106 11006KT P6SM VCTS FEW015 BKN050CB BKN250
      TEMPO 2003/2006 2SM TSRA BR BKN015CB OVC050
     FM200800 30006KT P6SM BKN015
     FM201400 33008KT P6SM SKC=

USA.gov is the U.S. government's official web portal to all federal, state and local government web resources and services.